This is the latest recevied weather packets stored in our database for station/object K2ATL. If no packets are shown the sender has not sent any weather packets the latest 10 day(s).
| Time | Temp. | Humidity | Pressure | Rain* | Wind** | Luminosity | Snow |
|---|---|---|---|---|---|---|---|
| 1777208816 | 12.78° C | 94% | 1098.1 hPa | 0 mm | - | 368 W/m² | - |
| 1777208514 | 13.89° C | 95% | 1098.3 hPa | 0 mm | - | 191 W/m² | - |
| 1777208210 | 11.67° C | 98% | 1098.1 hPa | 0 mm | - | 443 W/m² | - |
| 1777207905 | 12.22° C | 99% | 1098.3 hPa | 0 mm | - | 338 W/m² | - |
| 1777207600 | 12.22° C | 99% | 1098 hPa | 0 mm | - | 249 W/m² | - |
| 1777207295 | 12.22° C | 99% | 1097.8 hPa | 0 mm | - | 182 W/m² | - |
| 1777206989 | 12.22° C | 99% | 1097.7 hPa | 0 mm | - | 154 W/m² | - |
| 1777206686 | 12.78° C | 99% | 1097.6 hPa | 0 mm | - | 54 W/m² | - |
| 1777206381 | 13.33° C | 99% | 1097.7 hPa | 0 mm | - | 47 W/m² | - |
| 1777206076 | 13.33° C | 99% | 1097.4 hPa | 0 mm | - | 47 W/m² | - |
| 1777205772 | 12.78° C | 99% | 1097.6 hPa | 0 mm | - | 44 W/m² | - |
| 1777205470 | 12.78° C | 99% | 1097.7 hPa | 0 mm | - | 42 W/m² | - |
| 1777205166 | 12.78° C | 99% | 1097.6 hPa | 0 mm | - | 41 W/m² | - |
| 1777204863 | 12.78° C | 99% | 1097.5 hPa | 0 mm | - | 42 W/m² | - |
| 1777204556 | 12.78° C | 99% | 1097.5 hPa | 0 mm | - | 42 W/m² | - |
| 1777204253 | 12.78° C | 99% | 1097.5 hPa | 0 mm | - | 43 W/m² | - |
| 1777203949 | 12.78° C | 99% | 1097.6 hPa | 0 mm | - | 42 W/m² | - |
| 1777203643 | 12.22° C | 99% | 1097.5 hPa | 0 mm | - | 31 W/m² | - |
| 1777203339 | 12.22° C | 99% | 1097.4 hPa | 0 mm | - | 28 W/m² | - |
| 1777203036 | 12.22° C | 99% | 1097.5 hPa | 0 mm | - | 23 W/m² | - |
| 1777202733 | 12.22° C | 99% | 1097.4 hPa | 0 mm | - | 22 W/m² | - |
| 1777202432 | 12.78° C | 99% | 1097.4 hPa | 0 mm | - | 17 W/m² | - |
| 1777202127 | 12.78° C | 99% | 1097.4 hPa | 0 mm | - | 14 W/m² | - |
| 1777201822 | 12.78° C | 99% | 1097.3 hPa | 0 mm | - | 11 W/m² | - |
| 1777201520 | 12.78° C | 99% | 1097.5 hPa | 1.78 mm | - | 9 W/m² | - |
* Rain latest hour (hover to see other rain measurements)
** Current wind speed in m/s (hover to see current wind gust speed)